EDAH

Heringsdorf Airport

Heringsdorf, Germany
METAR EDAH 271150Z 02009KT CAVOK 19/14 Q1023
Observed Flight Rules
May-27 @ 11:50 UTC (16 minutes ago) Visual Flight Rules
Wind Visibility Clouds
20° at 9 knots 10,000+ meters
  • Clear skies
Temperatures Readings
Current 19°C / 66°F
Dewpoint 14°C / 57°F
Humidity 73%
Altimeter 30.21" Hg
Pressure 1023 hPa
Elevation 28
METAR EDAH 271150Z 02009KT CAVOK 19/14 Q1023
Observed Flight Rules
May-27 @ 11:50 UTC
(16 minutes ago)
VFR
Wind Visibility
20° at 9 knots 10,000+ meters
Clouds
  • Clear skies
Temperature Dewpoint
19°C / 66°F 14°C / 57°F
Humidity Altimeter Pressure
73% 30.21" Hg 1023 hPa